createdAt,value
2023-04-26T00:00:53.515Z,1.80
2023-04-26T00:03:20.995Z,1.65
2023-04-26T00:05:48.989Z,1.65
2023-04-26T00:08:15.963Z,1.70
2023-04-26T00:10:43.224Z,1.55
2023-04-26T00:13:10.451Z,1.90
2023-04-26T00:15:37.774Z,2.10
2023-04-26T00:18:04.822Z,1.60
2023-04-26T00:20:32.166Z,2.10
2023-04-26T00:22:59.416Z,1.90
2023-04-26T00:25:26.958Z,2.03
2023-04-26T00:27:53.776Z,1.60
2023-04-26T00:30:21.311Z,1.67
2023-04-26T00:32:48.348Z,1.63
2023-04-26T00:35:15.895Z,1.60
2023-04-26T00:37:44.191Z,1.83
2023-04-26T00:40:11.683Z,1.75
2023-04-26T00:42:40.060Z,1.90
2023-04-26T00:45:07.976Z,1.92
2023-04-26T00:47:35.669Z,1.70
2023-04-26T00:50:04.663Z,1.90
2023-04-26T00:52:32.236Z,1.25
2023-04-26T00:54:59.567Z,2.08
2023-04-26T00:57:26.879Z,2.05
2023-04-26T00:59:53.738Z,1.90
2023-04-26T01:02:21.676Z,2.00
2023-04-26T01:04:49.165Z,1.65
2023-04-26T01:07:17.352Z,1.65
2023-04-26T01:09:44.558Z,2.03
2023-04-26T01:12:13.100Z,1.92
2023-04-26T01:14:45.036Z,2.03
2023-04-26T01:17:13.487Z,2.47
2023-04-26T01:19:48.987Z,1.98
2023-04-26T01:22:17.004Z,1.60
2023-04-26T01:24:51.357Z,1.70
2023-04-26T01:27:18.590Z,1.98
2023-04-26T01:29:47.651Z,1.52
2023-04-26T01:32:14.892Z,1.60
2023-04-26T01:34:42.208Z,1.70
2023-04-26T01:37:12.782Z,1.73
2023-04-26T01:39:40.688Z,1.75
2023-04-26T01:42:08.028Z,2.13
2023-04-26T01:44:34.925Z,1.92
2023-04-26T01:47:02.280Z,2.80
2023-04-26T01:49:29.416Z,1.92
2023-04-26T01:51:56.628Z,1.73
2023-04-26T01:54:24.700Z,1.95
2023-04-26T01:56:53.174Z,2.38
2023-04-26T01:59:20.642Z,1.92
2023-04-26T02:01:48.282Z,1.75
2023-04-26T02:04:15.212Z,2.20
2023-04-26T02:06:42.545Z,1.85
2023-04-26T02:09:09.791Z,2.10
2023-04-26T02:11:40.441Z,1.90
2023-04-26T02:14:07.720Z,2.10
2023-04-26T02:16:35.069Z,1.92
2023-04-26T02:19:05.325Z,1.80
2023-04-26T02:21:32.806Z,2.42
2023-04-26T02:24:00.055Z,2.03
2023-04-26T02:26:27.263Z,1.65
2023-04-26T02:28:54.650Z,1.98
2023-04-26T02:31:23.378Z,1.70
2023-04-26T02:33:50.406Z,2.00
2023-04-26T02:36:17.649Z,1.90
2023-04-26T02:38:44.868Z,1.65
2023-04-26T02:41:12.160Z,2.22
2023-04-26T02:43:39.132Z,1.95
2023-04-26T02:46:07.873Z,1.80
2023-04-26T02:48:34.742Z,2.50
2023-04-26T02:51:02.050Z,2.28
2023-04-26T02:53:29.133Z,2.42
2023-04-26T02:55:56.447Z,2.05
2023-04-26T02:58:23.810Z,1.60
2023-04-26T03:00:51.078Z,1.92
2023-04-26T03:03:18.959Z,2.15
2023-04-26T03:05:46.338Z,2.20
2023-04-26T03:08:13.395Z,1.85
2023-04-26T03:10:40.691Z,1.92
2023-04-26T03:13:08.252Z,2.08
2023-04-26T03:15:36.094Z,2.20
2023-04-26T03:18:03.603Z,1.80
2023-04-26T03:20:31.037Z,1.83
2023-04-26T03:22:57.959Z,1.92
2023-04-26T03:25:25.592Z,1.75
2023-04-26T03:27:52.940Z,2.20
2023-04-26T03:30:20.190Z,2.65
2023-04-26T03:32:47.596Z,2.03
2023-04-26T03:35:15.292Z,2.42
2023-04-26T03:37:43.468Z,2.17
2023-04-26T03:40:14.004Z,2.17
2023-04-26T03:42:41.441Z,2.10
2023-04-26T03:45:08.920Z,2.17
2023-04-26T03:47:35.860Z,2.30
2023-04-26T03:50:03.499Z,2.67
2023-04-26T03:52:31.077Z,1.80
2023-04-26T03:54:58.420Z,2.75
2023-04-26T03:57:25.729Z,2.03
2023-04-26T03:59:52.634Z,2.17
2023-04-26T04:02:20.533Z,2.03
2023-04-26T04:04:48.036Z,2.58
2023-04-26T04:07:15.610Z,2.63
2023-04-26T04:09:43.042Z,2.28
2023-04-26T04:12:10.384Z,2.85
2023-04-26T04:14:37.836Z,1.95
2023-04-26T04:17:07.459Z,2.25
2023-04-26T04:19:34.594Z,2.42
2023-04-26T04:22:01.968Z,2.47
2023-04-26T04:24:29.756Z,2.53
2023-04-26T04:26:57.031Z,2.45
2023-04-26T04:29:24.358Z,2.70
2023-04-26T04:31:52.176Z,2.53
2023-04-26T04:34:19.848Z,2.38
2023-04-26T04:36:47.708Z,2.08
2023-04-26T04:39:16.543Z,2.78
2023-04-26T04:41:48.380Z,2.13
2023-04-26T04:44:17.368Z,2.70
2023-04-26T04:46:45.044Z,2.13
2023-04-26T04:49:12.935Z,2.05
2023-04-26T04:51:39.934Z,2.40
2023-04-26T04:54:14.434Z,2.28
2023-04-26T04:56:42.061Z,1.73
2023-04-26T04:59:10.314Z,2.30
2023-04-26T05:01:38.695Z,2.15
2023-04-26T05:04:10.779Z,2.22
2023-04-26T05:06:38.738Z,1.83
2023-04-26T05:09:06.146Z,2.60
2023-04-26T05:11:33.908Z,1.95
2023-04-26T05:14:02.561Z,2.28
2023-04-26T05:16:30.942Z,2.72
2023-04-26T05:18:59.873Z,2.10
2023-04-26T05:21:27.168Z,2.05
2023-04-26T05:23:54.776Z,1.90
2023-04-26T05:26:22.422Z,2.17
2023-04-26T05:28:54.104Z,2.33
2023-04-26T05:31:21.660Z,2.30
2023-04-26T05:34:05.445Z,2.70
2023-04-26T05:36:37.138Z,2.05
2023-04-26T05:39:05.873Z,2.50
2023-04-26T05:41:33.270Z,2.20
2023-04-26T05:44:00.873Z,2.10
2023-04-26T05:46:28.114Z,2.20
2023-04-26T05:48:55.999Z,2.55
2023-04-26T05:51:23.283Z,2.35
2023-04-26T05:53:51.674Z,2.20
2023-04-26T05:56:19.648Z,2.35
2023-04-26T05:58:47.736Z,2.45
2023-04-26T06:01:15.807Z,2.38
2023-04-26T06:03:43.318Z,2.17
2023-04-26T06:06:10.989Z,2.25
2023-04-26T06:08:40.184Z,2.35
2023-04-26T06:11:07.729Z,2.40
2023-04-26T06:13:35.005Z,2.17
2023-04-26T06:16:02.261Z,2.17
2023-04-26T06:18:29.462Z,2.10
2023-04-26T06:20:56.839Z,2.15
2023-04-26T06:23:24.951Z,2.90
2023-04-26T06:25:52.240Z,2.42
2023-04-26T06:28:19.441Z,2.95
2023-04-26T06:30:47.279Z,2.70
2023-04-26T06:33:15.283Z,2.90
2023-04-26T06:35:42.741Z,3.13
2023-04-26T06:38:12.906Z,3.30
2023-04-26T06:40:40.295Z,2.63
2023-04-26T06:43:08.575Z,2.95
2023-04-26T06:45:45.343Z,3.15
2023-04-26T06:48:13.149Z,3.40
2023-04-26T06:50:40.225Z,3.17
2023-04-26T06:53:07.814Z,3.00
2023-04-26T06:55:35.099Z,3.10
2023-04-26T06:58:02.415Z,2.70
2023-04-26T07:00:30.341Z,3.10
2023-04-26T07:02:58.029Z,2.92
2023-04-26T07:05:25.783Z,2.88
2023-04-26T07:07:53.216Z,2.55
2023-04-26T07:10:21.198Z,3.20
2023-04-26T07:12:48.534Z,3.03
2023-04-26T07:15:15.650Z,3.22
2023-04-26T07:17:42.924Z,2.92
2023-04-26T07:20:10.411Z,3.00
2023-04-26T07:22:37.646Z,3.60
2023-04-26T07:25:05.438Z,2.75
2023-04-26T07:27:33.110Z,3.00
2023-04-26T07:29:59.903Z,3.00
2023-04-26T07:32:28.823Z,3.10
2023-04-26T07:34:57.163Z,3.28
2023-04-26T07:37:24.415Z,2.97
2023-04-26T07:39:51.647Z,2.85
2023-04-26T07:42:18.890Z,3.08
2023-04-26T07:44:48.542Z,2.67
2023-04-26T07:47:15.827Z,2.97
2023-04-26T07:49:43.039Z,2.50
2023-04-26T07:52:09.987Z,2.55
2023-04-26T07:54:37.319Z,2.53
2023-04-26T07:57:04.292Z,2.90
2023-04-26T07:59:31.609Z,2.80
2023-04-26T08:01:58.909Z,2.50
2023-04-26T08:04:34.315Z,2.72
2023-04-26T08:07:02.296Z,2.60
2023-04-26T08:09:30.733Z,2.53
2023-04-26T08:11:58.284Z,2.35
2023-04-26T08:14:25.585Z,3.15
2023-04-26T08:16:54.004Z,2.17
2023-04-26T08:19:21.752Z,2.30
2023-04-26T08:21:48.984Z,2.08
2023-04-26T08:24:16.258Z,2.33
2023-04-26T08:26:43.129Z,2.38
2023-04-26T08:29:10.655Z,2.28
2023-04-26T08:31:37.782Z,2.33
2023-04-26T08:34:05.240Z,2.00
2023-04-26T08:36:32.558Z,2.05
2023-04-26T08:38:59.881Z,1.92
2023-04-26T08:41:27.617Z,2.15
2023-04-26T08:43:58.285Z,2.33
2023-04-26T08:46:28.242Z,2.40
2023-04-26T08:49:09.987Z,2.75
2023-04-26T08:51:37.332Z,2.53
2023-04-26T08:54:05.497Z,1.90
2023-04-26T08:56:32.898Z,2.47
2023-04-26T08:59:00.945Z,2.33
2023-04-26T09:01:29.942Z,2.40
2023-04-26T09:03:57.792Z,2.33
2023-04-26T09:06:27.430Z,1.67
2023-04-26T09:08:56.174Z,1.95
2023-04-26T09:11:23.012Z,2.30
2023-04-26T09:13:50.386Z,2.30
2023-04-26T09:16:17.824Z,2.70
2023-04-26T09:18:52.607Z,2.45
2023-04-26T09:21:20.582Z,2.13
2023-04-26T09:24:06.798Z,1.92
2023-04-26T09:26:34.019Z,2.00
2023-04-26T09:29:18.938Z,1.95
2023-04-26T09:31:49.821Z,2.08
2023-04-26T09:34:18.034Z,1.90
2023-04-26T09:36:48.105Z,1.77
2023-04-26T09:39:15.315Z,1.92
2023-04-26T09:41:44.116Z,1.85
2023-04-26T09:44:24.414Z,2.30
2023-04-26T09:47:11.924Z,2.17
2023-04-26T09:49:51.467Z,1.92
2023-04-26T09:52:19.420Z,2.17
2023-04-26T09:54:53.926Z,2.03
2023-04-26T09:57:23.687Z,1.77
2023-04-26T09:59:55.048Z,2.15
2023-04-26T10:02:27.784Z,1.88
2023-04-26T10:04:57.266Z,1.80
2023-04-26T10:07:25.825Z,1.67
2023-04-26T10:09:55.515Z,1.77
2023-04-26T10:12:22.762Z,2.00
2023-04-26T10:14:49.616Z,1.65
2023-04-26T10:17:18.674Z,1.65
2023-04-26T10:19:48.361Z,1.52
2023-04-26T10:22:24.819Z,1.30
2023-04-26T10:24:54.299Z,1.30
2023-04-26T10:27:43.306Z,1.48
2023-04-26T10:30:20.598Z,1.88
2023-04-26T10:32:56.514Z,1.40
2023-04-26T10:35:35.888Z,1.40
2023-04-26T10:38:02.768Z,1.40
2023-04-26T10:40:40.295Z,1.80
2023-04-26T10:43:16.063Z,1.25
2023-04-26T10:45:44.897Z,1.90
2023-04-26T10:48:31.946Z,1.67
2023-04-26T10:51:01.916Z,1.42
2023-04-26T10:53:34.431Z,1.65
2023-04-26T10:56:01.346Z,1.67
2023-04-26T10:58:30.514Z,1.30
2023-04-26T11:01:09.790Z,1.33
2023-04-26T11:03:37.712Z,1.77
2023-04-26T11:06:15.695Z,1.17
2023-04-26T11:08:43.252Z,1.65
2023-04-26T11:11:16.179Z,1.42
2023-04-26T11:13:44.105Z,2.10
2023-04-26T11:16:16.223Z,1.90
2023-04-26T11:18:47.433Z,1.85
2023-04-26T11:21:18.243Z,2.10
2023-04-26T11:23:54.127Z,1.85
2023-04-26T11:26:21.070Z,1.88
2023-04-26T11:28:49.358Z,1.80
2023-04-26T11:31:19.002Z,1.90
2023-04-26T11:33:49.057Z,1.52
2023-04-26T11:36:17.455Z,1.83
2023-04-26T11:38:44.425Z,2.25
2023-04-26T11:41:11.434Z,1.55
2023-04-26T11:43:40.017Z,1.75
2023-04-26T11:46:09.287Z,1.27
2023-04-26T11:48:37.882Z,1.52
2023-04-26T11:51:07.398Z,1.63
2023-04-26T11:53:42.103Z,1.40
2023-04-26T11:56:17.106Z,1.52
2023-04-26T11:58:48.569Z,1.45
2023-04-26T12:01:27.004Z,1.67
2023-04-26T12:03:56.185Z,1.33
2023-04-26T12:06:45.759Z,1.40
2023-04-26T12:09:13.289Z,1.65
2023-04-26T12:11:40.378Z,1.40
2023-04-26T12:14:11.548Z,1.65
2023-04-26T12:16:38.599Z,1.38
2023-04-26T12:19:09.989Z,1.52
2023-04-26T12:21:44.046Z,1.50
2023-04-26T12:24:25.982Z,1.42
2023-04-26T12:26:53.300Z,1.73
2023-04-26T12:29:20.203Z,1.20
2023-04-26T12:31:47.235Z,1.50
2023-04-26T12:34:14.109Z,1.67
2023-04-26T12:36:44.715Z,1.30
2023-04-26T12:39:14.434Z,1.50
2023-04-26T12:41:45.316Z,8.65
2023-04-26T12:44:15.198Z,3.63
2023-04-26T12:46:42.221Z,3.22
2023-04-26T12:49:09.366Z,2.53
2023-04-26T12:51:36.414Z,2.60
2023-04-26T12:54:03.637Z,3.47
2023-04-26T12:56:31.164Z,1.98
2023-04-26T12:58:58.556Z,2.30
2023-04-26T13:01:26.585Z,1.85
2023-04-26T13:03:55.683Z,1.70
2023-04-26T13:06:23.251Z,1.60
2023-04-26T13:08:50.552Z,1.45
2023-04-26T13:11:18.202Z,1.80
2023-04-26T13:13:45.278Z,1.67
2023-04-26T13:16:13.314Z,2.03
2023-04-26T13:18:41.181Z,1.50
2023-04-26T13:21:08.785Z,1.77
2023-04-26T13:23:35.645Z,1.45
2023-04-26T13:26:02.680Z,1.50
2023-04-26T13:28:29.571Z,1.60
2023-04-26T13:30:56.652Z,1.40
2023-04-26T13:33:23.605Z,1.58
2023-04-26T13:35:50.595Z,1.75
2023-04-26T13:38:17.912Z,1.45
2023-04-26T13:40:45.045Z,1.60
2023-04-26T13:43:11.899Z,1.42
2023-04-26T13:45:38.968Z,1.25
2023-04-26T13:48:06.113Z,1.20
2023-04-26T13:50:33.178Z,1.55
2023-04-26T13:53:00.199Z,1.10
2023-04-26T13:55:27.090Z,1.00
2023-04-26T13:57:53.975Z,1.40
2023-04-26T14:00:21.990Z,1.50
2023-04-26T14:02:49.699Z,1.23
2023-04-26T14:05:17.061Z,1.27
2023-04-26T14:07:44.027Z,0.93
2023-04-26T14:10:12.177Z,1.20
2023-04-26T14:12:39.298Z,1.45
2023-04-26T14:15:07.047Z,1.30
2023-04-26T14:17:34.261Z,0.90
2023-04-26T14:20:01.373Z,0.90
2023-04-26T14:22:28.496Z,1.05
2023-04-26T14:27:46.899Z,1.50
2023-04-26T14:30:16.692Z,1.20
2023-04-26T14:32:43.762Z,1.17
2023-04-26T14:35:11.787Z,0.90
2023-04-26T14:37:38.771Z,1.15
2023-04-26T14:40:08.053Z,1.10
2023-04-26T14:42:35.014Z,1.23
2023-04-26T14:45:01.990Z,0.90
2023-04-26T14:47:29.456Z,1.15
2023-04-26T14:49:57.598Z,1.10
2023-04-26T14:52:27.049Z,1.00
2023-04-26T14:54:53.900Z,1.27
2023-04-26T14:57:20.718Z,1.75
2023-04-26T14:59:48.150Z,1.55
2023-04-26T15:02:15.295Z,0.90
2023-04-26T15:04:42.391Z,0.95
2023-04-26T15:07:17.843Z,1.73
2023-04-26T15:09:51.633Z,2.60
2023-04-26T15:12:18.519Z,2.33
2023-04-26T15:14:46.181Z,1.50
2023-04-26T15:17:12.998Z,5.35
2023-04-26T15:19:40.444Z,2.42
2023-04-26T15:22:07.310Z,2.83
2023-04-26T15:24:37.489Z,2.17
2023-04-26T15:27:04.995Z,1.15
2023-04-26T15:29:35.020Z,1.20
2023-04-26T15:32:01.888Z,1.00
2023-04-26T15:34:30.116Z,1.30
2023-04-26T15:37:00.296Z,1.20
2023-04-26T15:39:27.085Z,1.10
2023-04-26T15:41:53.934Z,1.27
2023-04-26T15:44:21.130Z,1.20
2023-04-26T15:46:48.059Z,1.10
2023-04-26T15:49:15.074Z,0.90
2023-04-26T15:51:41.852Z,1.13
2023-04-26T15:54:08.662Z,1.05
2023-04-26T15:56:36.468Z,1.00
2023-04-26T15:59:03.617Z,0.77
2023-04-26T16:01:30.546Z,1.23
2023-04-26T16:03:57.755Z,0.85
2023-04-26T16:06:24.680Z,0.98
2023-04-26T16:08:51.470Z,0.60
2023-04-26T16:11:18.511Z,0.90
2023-04-26T16:13:45.705Z,0.65
2023-04-26T16:16:12.583Z,0.70
2023-04-26T16:18:39.869Z,0.93
2023-04-26T16:21:09.380Z,0.70
2023-04-26T16:23:36.891Z,0.98
2023-04-26T16:26:04.572Z,0.60
2023-04-26T16:28:31.824Z,1.17
2023-04-26T16:30:58.839Z,0.88
2023-04-26T16:33:26.150Z,0.50
2023-04-26T16:35:54.980Z,0.90
2023-04-26T16:38:24.903Z,0.73
2023-04-26T16:40:57.672Z,0.70
2023-04-26T16:43:27.026Z,0.90
2023-04-26T16:46:01.400Z,0.70
2023-04-26T16:48:30.285Z,0.70
2023-04-26T16:50:57.343Z,0.80
2023-04-26T16:53:24.192Z,1.45
2023-04-26T16:55:51.228Z,0.80
2023-04-26T16:58:18.275Z,0.75
2023-04-26T17:00:46.813Z,1.02
2023-04-26T17:03:14.399Z,1.08
2023-04-26T17:05:43.783Z,0.80
2023-04-26T17:08:11.102Z,0.85
2023-04-26T17:10:38.355Z,1.40
2023-04-26T17:13:06.749Z,0.93
2023-04-26T17:15:34.738Z,1.38
2023-04-26T17:18:02.308Z,0.82
2023-04-26T17:20:29.792Z,1.02
2023-04-26T17:22:57.559Z,0.93
2023-04-26T17:25:25.130Z,0.88
2023-04-26T17:27:52.696Z,1.23
2023-04-26T17:30:23.100Z,0.80
2023-04-26T17:32:50.662Z,1.42
2023-04-26T17:35:18.020Z,0.85
2023-04-26T17:37:50.263Z,1.02
2023-04-26T17:40:18.654Z,0.70
2023-04-26T17:42:46.840Z,1.20
2023-04-26T17:45:14.895Z,1.10
2023-04-26T17:47:43.037Z,0.82
2023-04-26T17:50:10.897Z,1.50
2023-04-26T17:52:38.619Z,1.17
2023-04-26T17:55:09.364Z,1.30
2023-04-26T17:57:37.365Z,1.10
2023-04-26T18:00:06.759Z,0.75
2023-04-26T18:02:35.269Z,1.23
2023-04-26T18:05:03.807Z,0.88
2023-04-26T18:07:31.007Z,0.95
2023-04-26T18:09:58.080Z,1.35
2023-04-26T18:12:25.947Z,0.80
2023-04-26T18:14:53.493Z,0.80
2023-04-26T18:17:20.889Z,0.90
2023-04-26T18:19:47.801Z,1.17
2023-04-26T18:22:14.830Z,1.60
2023-04-26T18:24:42.035Z,1.17
2023-04-26T18:27:11.598Z,1.15
2023-04-26T18:29:38.560Z,1.02
2023-04-26T18:32:05.722Z,0.95
2023-04-26T18:34:33.168Z,1.20
2023-04-26T18:37:00.310Z,1.23
2023-04-26T18:39:27.729Z,2.00
2023-04-26T18:41:55.019Z,1.73
2023-04-26T18:44:21.950Z,2.85
2023-04-26T18:46:49.277Z,1.85
2023-04-26T18:49:16.710Z,1.67
2023-04-26T18:51:44.142Z,3.72
2023-04-26T18:54:11.373Z,3.03
2023-04-26T18:56:38.483Z,2.10
2023-04-26T18:59:05.265Z,2.50
2023-04-26T19:01:32.745Z,1.90
2023-04-26T19:04:00.648Z,2.13
2023-04-26T19:06:28.238Z,2.63
2023-04-26T19:08:55.712Z,1.50
2023-04-26T19:11:22.771Z,1.33
2023-04-26T19:13:49.981Z,1.13
2023-04-26T19:16:17.559Z,1.25
2023-04-26T19:18:44.735Z,1.33
2023-04-26T19:21:12.123Z,1.67
2023-04-26T19:23:39.640Z,1.50
2023-04-26T19:26:14.043Z,2.35
2023-04-26T19:28:41.684Z,2.33
2023-04-26T19:31:09.225Z,2.35
2023-04-26T19:33:37.236Z,1.77
2023-04-26T19:36:04.973Z,1.67
2023-04-26T19:38:31.992Z,2.33
2023-04-26T19:40:59.384Z,2.08
2023-04-26T19:43:26.214Z,2.78
2023-04-26T19:45:53.600Z,2.00
2023-04-26T19:48:20.738Z,1.63
2023-04-26T19:50:48.081Z,2.95
2023-04-26T19:53:15.733Z,3.53
2023-04-26T19:55:43.025Z,3.03
2023-04-26T19:58:13.166Z,2.25
2023-04-26T20:00:40.743Z,2.25
2023-04-26T20:03:07.991Z,1.13
2023-04-26T20:05:35.432Z,3.03
2023-04-26T20:08:03.501Z,3.83
2023-04-26T20:10:32.138Z,3.10
2023-04-26T20:13:00.632Z,3.08
2023-04-26T20:15:28.161Z,2.60
2023-04-26T20:17:55.599Z,1.70
2023-04-26T20:20:22.767Z,2.15
2023-04-26T20:22:49.905Z,1.95
2023-04-26T20:25:19.982Z,2.08
2023-04-26T20:27:48.215Z,1.85
2023-04-26T20:30:15.952Z,1.60
2023-04-26T20:32:43.531Z,1.73
2023-04-26T20:35:12.861Z,1.50
2023-04-26T20:37:40.230Z,1.40
2023-04-26T20:40:07.997Z,1.17
2023-04-26T20:42:35.437Z,1.70
2023-04-26T20:45:03.026Z,1.23
2023-04-26T20:47:30.185Z,1.10
2023-04-26T20:49:57.069Z,1.60
2023-04-26T20:52:23.919Z,1.42
2023-04-26T20:54:50.864Z,1.60
2023-04-26T20:57:18.031Z,1.55
2023-04-26T20:59:44.922Z,1.50
2023-04-26T21:02:11.881Z,1.50
2023-04-26T21:04:41.827Z,1.60
2023-04-26T21:07:12.538Z,1.30
2023-04-26T21:09:39.479Z,1.45
2023-04-26T21:12:06.929Z,1.55
2023-04-26T21:14:33.767Z,1.83
2023-04-26T21:17:01.565Z,1.67
2023-04-26T21:19:28.777Z,1.85
2023-04-26T21:21:55.669Z,1.50
2023-04-26T21:24:22.539Z,1.80
2023-04-26T21:26:49.780Z,1.73
2023-04-26T21:29:17.124Z,1.63
2023-04-26T21:31:44.460Z,1.83
2023-04-26T21:34:11.432Z,1.80
2023-04-26T21:36:38.711Z,1.50
2023-04-26T21:39:05.498Z,1.80
2023-04-26T21:41:32.745Z,1.63
2023-04-26T21:43:59.520Z,1.65
2023-04-26T21:46:26.875Z,1.73
2023-04-26T21:48:54.035Z,1.95
2023-04-26T21:51:20.947Z,1.48
2023-04-26T21:53:48.180Z,1.80
2023-04-26T21:56:15.107Z,1.65
2023-04-26T21:58:42.370Z,1.75
2023-04-26T22:01:13.977Z,2.28
2023-04-26T22:03:41.504Z,1.90
2023-04-26T22:06:09.923Z,2.10
2023-04-26T22:08:37.227Z,2.05
2023-04-26T22:11:04.387Z,2.00
2023-04-26T22:13:32.296Z,2.03
2023-04-26T22:15:59.610Z,2.33
2023-04-26T22:18:28.448Z,1.83
2023-04-26T22:20:56.086Z,2.33
2023-04-26T22:23:22.924Z,2.13
2023-04-26T22:25:50.150Z,1.65
2023-04-26T22:28:17.424Z,2.20
2023-04-26T22:30:44.252Z,2.03
2023-04-26T22:33:12.285Z,2.13
2023-04-26T22:35:39.517Z,2.17
2023-04-26T22:38:06.751Z,2.25
2023-04-26T22:40:33.788Z,2.17
2023-04-26T22:43:01.196Z,2.20
2023-04-26T22:45:28.454Z,2.15
2023-04-26T22:47:55.847Z,2.08
2023-04-26T22:50:23.163Z,1.70
2023-04-26T22:52:50.783Z,1.85
2023-04-26T22:55:17.936Z,1.90
2023-04-26T22:57:45.261Z,1.88
2023-04-26T23:00:14.116Z,2.10
2023-04-26T23:02:41.421Z,2.08
2023-04-26T23:05:11.616Z,2.30
2023-04-26T23:07:39.736Z,2.05
2023-04-26T23:10:07.676Z,1.65
2023-04-26T23:12:36.051Z,2.13
2023-04-26T23:15:05.309Z,2.08
2023-04-26T23:17:34.662Z,1.65
2023-04-26T23:20:02.169Z,1.80
2023-04-26T23:22:29.441Z,2.00
2023-04-26T23:24:56.612Z,1.70
2023-04-26T23:27:24.856Z,2.13
2023-04-26T23:29:52.234Z,2.25
2023-04-26T23:32:19.204Z,2.08
2023-04-26T23:34:46.603Z,2.17
2023-04-26T23:37:13.467Z,1.85
2023-04-26T23:39:40.654Z,2.47
2023-04-26T23:42:07.878Z,2.25
2023-04-26T23:44:35.099Z,1.70
2023-04-26T23:47:02.317Z,2.20
2023-04-26T23:49:29.331Z,2.00
2023-04-26T23:51:56.618Z,1.90
2023-04-26T23:54:23.916Z,1.85
2023-04-26T23:56:51.158Z,1.73
2023-04-26T23:59:18.364Z,1.55
